sensor_id;sensor_type;location;lat;lon;timestamp;P1;durP1;ratioP1;P2;durP2;ratioP2
22675;SDS011;12521;43.310;21.876;2023-02-19T00:03:56;88.0;;;74.0;;
22675;SDS011;12521;43.310;21.876;2023-02-19T00:08:47;93.0;;;77.0;;
22675;SDS011;12521;43.310;21.876;2023-02-19T00:13:25;93.0;;;77.0;;
22675;SDS011;12521;43.310;21.876;2023-02-19T00:18:02;98.0;;;79.0;;
22675;SDS011;12521;43.310;21.876;2023-02-19T00:22:39;98.0;;;79.0;;
22675;SDS011;12521;43.310;21.876;2023-02-19T00:27:16;104.0;;;81.0;;
22675;SDS011;12521;43.310;21.876;2023-02-19T00:31:52;104.0;;;81.0;;
22675;SDS011;12521;43.310;21.876;2023-02-19T00:36:29;104.0;;;81.0;;
22675;SDS011;12521;43.310;21.876;2023-02-19T00:41:12;98.0;;;78.0;;
22675;SDS011;12521;43.310;21.876;2023-02-19T00:45:54;98.0;;;78.0;;
22675;SDS011;12521;43.310;21.876;2023-02-19T00:50:30;91.0;;;74.0;;
22675;SDS011;12521;43.310;21.876;2023-02-19T00:55:07;91.0;;;74.0;;
22675;SDS011;12521;43.310;21.876;2023-02-19T00:59:43;92.0;;;70.0;;
22675;SDS011;12521;43.310;21.876;2023-02-19T01:04:20;92.0;;;70.0;;
22675;SDS011;12521;43.310;21.876;2023-02-19T01:08:57;94.0;;;67.0;;
22675;SDS011;12521;43.310;21.876;2023-02-19T01:13:34;94.0;;;67.0;;
22675;SDS011;12521;43.310;21.876;2023-02-19T01:18:15;84.0;;;62.0;;
22675;SDS011;12521;43.310;21.876;2023-02-19T01:22:53;84.0;;;62.0;;
22675;SDS011;12521;43.310;21.876;2023-02-19T01:27:30;75.0;;;56.0;;
22675;SDS011;12521;43.310;21.876;2023-02-19T01:32:07;75.0;;;56.0;;
22675;SDS011;12521;43.310;21.876;2023-02-19T01:36:44;70.0;;;52.0;;
22675;SDS011;12521;43.310;21.876;2023-02-19T01:41:23;70.0;;;52.0;;
22675;SDS011;12521;43.310;21.876;2023-02-19T01:46:01;70.0;;;52.0;;
22675;SDS011;12521;43.310;21.876;2023-02-19T01:50:40;65.0;;;49.0;;
22675;SDS011;12521;43.310;21.876;2023-02-19T01:55:39;65.0;;;49.0;;
22675;SDS011;12521;43.310;21.876;2023-02-19T02:00:29;59.0;;;44.0;;
22675;SDS011;12521;43.310;21.876;2023-02-19T02:05:09;59.0;;;44.0;;
22675;SDS011;12521;43.310;21.876;2023-02-19T02:10:27;53.0;;;40.0;;
22675;SDS011;12521;43.310;21.876;2023-02-19T02:15:04;53.0;;;40.0;;
22675;SDS011;12521;43.310;21.876;2023-02-19T02:19:50;64.0;;;48.0;;
22675;SDS011;12521;43.310;21.876;2023-02-19T02:25:37;64.0;;;48.0;;
22675;SDS011;12521;43.310;21.876;2023-02-19T02:31:16;75.0;;;57.0;;
22675;SDS011;12521;43.310;21.876;2023-02-19T02:36:18;75.0;;;57.0;;
22675;SDS011;12521;43.310;21.876;2023-02-19T02:41:14;80.0;;;57.0;;
22675;SDS011;12521;43.310;21.876;2023-02-19T02:45:52;80.0;;;57.0;;
22675;SDS011;12521;43.310;21.876;2023-02-19T02:50:32;85.0;;;57.0;;
22675;SDS011;12521;43.310;21.876;2023-02-19T02:55:31;85.0;;;57.0;;
22675;SDS011;12521;43.310;21.876;2023-02-19T03:00:26;63.0;;;44.0;;
22675;SDS011;12521;43.310;21.876;2023-02-19T03:05:15;63.0;;;44.0;;
22675;SDS011;12521;43.310;21.876;2023-02-19T03:10:03;41.0;;;32.0;;
22675;SDS011;12521;43.310;21.876;2023-02-19T03:14:58;41.0;;;32.0;;
22675;SDS011;12521;43.310;21.876;2023-02-19T03:19:50;42.0;;;32.0;;
22675;SDS011;12521;43.310;21.876;2023-02-19T03:24:44;42.0;;;32.0;;
22675;SDS011;12521;43.310;21.876;2023-02-19T03:29:39;43.0;;;33.0;;
22675;SDS011;12521;43.310;21.876;2023-02-19T03:34:25;43.0;;;33.0;;
22675;SDS011;12521;43.310;21.876;2023-02-19T03:39:21;54.0;;;42.0;;
22675;SDS011;12521;43.310;21.876;2023-02-19T03:44:01;54.0;;;42.0;;
22675;SDS011;12521;43.310;21.876;2023-02-19T03:49:12;65.0;;;51.0;;
22675;SDS011;12521;43.310;21.876;2023-02-19T03:54:18;65.0;;;51.0;;
22675;SDS011;12521;43.310;21.876;2023-02-19T03:59:31;64.0;;;48.0;;
22675;SDS011;12521;43.310;21.876;2023-02-19T04:04:34;64.0;;;48.0;;
22675;SDS011;12521;43.310;21.876;2023-02-19T04:09:34;64.0;;;45.0;;
22675;SDS011;12521;43.310;21.876;2023-02-19T04:14:28;64.0;;;45.0;;
22675;SDS011;12521;43.310;21.876;2023-02-19T04:19:36;65.0;;;49.0;;
22675;SDS011;12521;43.310;21.876;2023-02-19T04:24:27;65.0;;;49.0;;
22675;SDS011;12521;43.310;21.876;2023-02-19T04:29:26;66.0;;;53.0;;
22675;SDS011;12521;43.310;21.876;2023-02-19T04:34:03;66.0;;;53.0;;
22675;SDS011;12521;43.310;21.876;2023-02-19T04:38:40;82.0;;;66.0;;
22675;SDS011;12521;43.310;21.876;2023-02-19T04:43:21;82.0;;;66.0;;
22675;SDS011;12521;43.310;21.876;2023-02-19T04:47:58;99.0;;;78.0;;
22675;SDS011;12521;43.310;21.876;2023-02-19T04:52:34;99.0;;;78.0;;
22675;SDS011;12521;43.310;21.876;2023-02-19T04:57:11;86.0;;;68.0;;
22675;SDS011;12521;43.310;21.876;2023-02-19T05:01:47;86.0;;;68.0;;
22675;SDS011;12521;43.310;21.876;2023-02-19T05:06:24;86.0;;;68.0;;
22675;SDS011;12521;43.310;21.876;2023-02-19T05:11:00;72.0;;;58.0;;
22675;SDS011;12521;43.310;21.876;2023-02-19T05:15:54;72.0;;;58.0;;
22675;SDS011;12521;43.310;21.876;2023-02-19T05:20:41;62.0;;;52.0;;
22675;SDS011;12521;43.310;21.876;2023-02-19T05:25:18;62.0;;;52.0;;
22675;SDS011;12521;43.310;21.876;2023-02-19T05:29:54;51.0;;;46.0;;
22675;SDS011;12521;43.310;21.876;2023-02-19T05:34:31;51.0;;;46.0;;
22675;SDS011;12521;43.310;21.876;2023-02-19T05:39:09;50.0;;;44.0;;
22675;SDS011;12521;43.310;21.876;2023-02-19T05:43:47;50.0;;;44.0;;
22675;SDS011;12521;43.310;21.876;2023-02-19T05:48:28;49.0;;;41.0;;
22675;SDS011;12521;43.310;21.876;2023-02-19T05:53:05;49.0;;;41.0;;
22675;SDS011;12521;43.310;21.876;2023-02-19T05:57:42;52.0;;;44.0;;
22675;SDS011;12521;43.310;21.876;2023-02-19T06:02:23;52.0;;;44.0;;
22675;SDS011;12521;43.310;21.876;2023-02-19T06:06:59;54.0;;;46.0;;
22675;SDS011;12521;43.310;21.876;2023-02-19T06:11:36;54.0;;;46.0;;
22675;SDS011;12521;43.310;21.876;2023-02-19T06:16:14;54.0;;;46.0;;
22675;SDS011;12521;43.310;21.876;2023-02-19T06:20:53;50.0;;;42.0;;
22675;SDS011;12521;43.310;21.876;2023-02-19T06:25:35;50.0;;;42.0;;
22675;SDS011;12521;43.310;21.876;2023-02-19T06:30:12;47.0;;;39.0;;
22675;SDS011;12521;43.310;21.876;2023-02-19T06:34:49;47.0;;;39.0;;
22675;SDS011;12521;43.310;21.876;2023-02-19T06:39:25;56.0;;;48.0;;
22675;SDS011;12521;43.310;21.876;2023-02-19T06:44:03;56.0;;;48.0;;
22675;SDS011;12521;43.310;21.876;2023-02-19T06:48:41;66.0;;;56.0;;
22675;SDS011;12521;43.310;21.876;2023-02-19T06:53:21;66.0;;;56.0;;
22675;SDS011;12521;43.310;21.876;2023-02-19T06:58:00;68.0;;;53.0;;
22675;SDS011;12521;43.310;21.876;2023-02-19T07:02:37;68.0;;;53.0;;
22675;SDS011;12521;43.310;21.876;2023-02-19T07:07:14;71.0;;;50.0;;
22675;SDS011;12521;43.310;21.876;2023-02-19T07:11:51;71.0;;;50.0;;
22675;SDS011;12521;43.310;21.876;2023-02-19T07:16:27;71.0;;;50.0;;
22675;SDS011;12521;43.310;21.876;2023-02-19T07:21:06;63.0;;;48.0;;
22675;SDS011;12521;43.310;21.876;2023-02-19T07:25:51;63.0;;;48.0;;
22675;SDS011;12521;43.310;21.876;2023-02-19T07:30:28;55.0;;;45.0;;
22675;SDS011;12521;43.310;21.876;2023-02-19T07:35:04;55.0;;;45.0;;
22675;SDS011;12521;43.310;21.876;2023-02-19T07:39:43;56.0;;;46.0;;
22675;SDS011;12521;43.310;21.876;2023-02-19T07:44:19;56.0;;;46.0;;
22675;SDS011;12521;43.310;21.876;2023-02-19T07:48:56;57.0;;;47.0;;
22675;SDS011;12521;43.310;21.876;2023-02-19T07:53:34;57.0;;;47.0;;
22675;SDS011;12521;43.310;21.876;2023-02-19T07:58:11;75.0;;;58.0;;
22675;SDS011;12521;43.310;21.876;2023-02-19T08:02:49;75.0;;;58.0;;
22675;SDS011;12521;43.310;21.876;2023-02-19T08:07:29;93.0;;;68.0;;
22675;SDS011;12521;43.310;21.876;2023-02-19T08:12:10;93.0;;;68.0;;
22675;SDS011;12521;43.310;21.876;2023-02-19T08:16:47;93.0;;;68.0;;
22675;SDS011;12521;43.310;21.876;2023-02-19T08:21:26;82.0;;;64.0;;
22675;SDS011;12521;43.310;21.876;2023-02-19T08:26:03;82.0;;;64.0;;
22675;SDS011;12521;43.310;21.876;2023-02-19T08:30:42;72.0;;;60.0;;
22675;SDS011;12521;43.310;21.876;2023-02-19T08:35:23;72.0;;;60.0;;
22675;SDS011;12521;43.310;21.876;2023-02-19T08:40:03;66.0;;;52.0;;
22675;SDS011;12521;43.310;21.876;2023-02-19T08:44:41;66.0;;;52.0;;
22675;SDS011;12521;43.310;21.876;2023-02-19T08:49:17;59.0;;;45.0;;
22675;SDS011;12521;43.310;21.876;2023-02-19T08:53:53;59.0;;;45.0;;
22675;SDS011;12521;43.310;21.876;2023-02-19T08:58:30;49.0;;;40.0;;
22675;SDS011;12521;43.310;21.876;2023-02-19T09:03:06;49.0;;;40.0;;
22675;SDS011;12521;43.310;21.876;2023-02-19T09:07:45;39.0;;;34.0;;
22675;SDS011;12521;43.310;21.876;2023-02-19T09:12:21;39.0;;;34.0;;
22675;SDS011;12521;43.310;21.876;2023-02-19T09:17:00;39.0;;;34.0;;
22675;SDS011;12521;43.310;21.876;2023-02-19T09:21:43;50.0;;;40.0;;
22675;SDS011;12521;43.310;21.876;2023-02-19T09:26:20;50.0;;;40.0;;
22675;SDS011;12521;43.310;21.876;2023-02-19T09:31:01;61.0;;;46.0;;
22675;SDS011;12521;43.310;21.876;2023-02-19T09:35:45;61.0;;;46.0;;
22675;SDS011;12521;43.310;21.876;2023-02-19T09:40:22;53.0;;;42.0;;
22675;SDS011;12521;43.310;21.876;2023-02-19T09:44:59;53.0;;;42.0;;
22675;SDS011;12521;43.310;21.876;2023-02-19T09:49:50;45.0;;;38.0;;
22675;SDS011;12521;43.310;21.876;2023-02-19T09:54:40;45.0;;;38.0;;
22675;SDS011;12521;43.310;21.876;2023-02-19T09:59:22;44.0;;;36.0;;
22675;SDS011;12521;43.310;21.876;2023-02-19T10:04:16;44.0;;;36.0;;
22675;SDS011;12521;43.310;21.876;2023-02-19T10:08:53;42.0;;;33.0;;
22675;SDS011;12521;43.310;21.876;2023-02-19T10:14:00;42.0;;;33.0;;
22675;SDS011;12521;43.310;21.876;2023-02-19T10:18:53;37.0;;;30.0;;
22675;SDS011;12521;43.310;21.876;2023-02-19T10:23:30;37.0;;;30.0;;
22675;SDS011;12521;43.310;21.876;2023-02-19T10:28:09;32.0;;;28.0;;
22675;SDS011;12521;43.310;21.876;2023-02-19T10:33:03;32.0;;;28.0;;
22675;SDS011;12521;43.310;21.876;2023-02-19T10:37:51;29.0;;;24.0;;
22675;SDS011;12521;43.310;21.876;2023-02-19T10:42:29;29.0;;;24.0;;
22675;SDS011;12521;43.310;21.876;2023-02-19T10:47:07;29.0;;;24.0;;
22675;SDS011;12521;43.310;21.876;2023-02-19T10:52:01;26.0;;;21.0;;
22675;SDS011;12521;43.310;21.876;2023-02-19T10:57:14;26.0;;;21.0;;
22675;SDS011;12521;43.310;21.876;2023-02-19T11:02:15;26.0;;;20.0;;
22675;SDS011;12521;43.310;21.876;2023-02-19T11:06:56;26.0;;;20.0;;
22675;SDS011;12521;43.310;21.876;2023-02-19T11:11:33;27.0;;;20.0;;
22675;SDS011;12521;43.310;21.876;2023-02-19T11:16:14;27.0;;;20.0;;
22675;SDS011;12521;43.310;21.876;2023-02-19T11:20:52;31.0;;;22.0;;
22675;SDS011;12521;43.310;21.876;2023-02-19T11:25:36;31.0;;;22.0;;
22675;SDS011;12521;43.310;21.876;2023-02-19T11:30:31;35.0;;;25.0;;
22675;SDS011;12521;43.310;21.876;2023-02-19T11:35:17;35.0;;;25.0;;
22675;SDS011;12521;43.310;21.876;2023-02-19T11:39:58;26.0;;;19.0;;
22675;SDS011;12521;43.310;21.876;2023-02-19T11:44:38;26.0;;;19.0;;
22675;SDS011;12521;43.310;21.876;2023-02-19T11:50:13;18.0;;;13.0;;
22675;SDS011;12521;43.310;21.876;2023-02-19T11:55:34;18.0;;;13.0;;
22675;SDS011;12521;43.310;21.876;2023-02-19T12:00:54;19.0;;;14.0;;
22675;SDS011;12521;43.310;21.876;2023-02-19T12:06:18;19.0;;;14.0;;
22675;SDS011;12521;43.310;21.876;2023-02-19T12:12:03;20.0;;;15.0;;
22675;SDS011;12521;43.310;21.876;2023-02-19T12:20:07;24.0;;;14.0;;
22675;SDS011;12521;43.310;21.876;2023-02-19T12:25:41;24.0;;;14.0;;
22675;SDS011;12521;43.310;21.876;2023-02-19T12:31:08;27.0;;;14.0;;
22675;SDS011;12521;43.310;21.876;2023-02-19T12:37:02;27.0;;;14.0;;
22675;SDS011;12521;43.310;21.876;2023-02-19T12:42:37;22.0;;;14.0;;
22675;SDS011;12521;43.310;21.876;2023-02-19T12:47:56;16.0;;;14.0;;
22675;SDS011;12521;43.310;21.876;2023-02-19T12:53:10;16.0;;;14.0;;
22675;SDS011;12521;43.310;21.876;2023-02-19T12:58:23;16.0;;;13.0;;
22675;SDS011;12521;43.310;21.876;2023-02-19T13:03:24;16.0;;;13.0;;
22675;SDS011;12521;43.310;21.876;2023-02-19T13:08:49;16.0;;;12.0;;
22675;SDS011;12521;43.310;21.876;2023-02-19T13:13:56;16.0;;;12.0;;
22675;SDS011;12521;43.310;21.876;2023-02-19T13:19:08;18.0;;;12.0;;
22675;SDS011;12521;43.310;21.876;2023-02-19T13:23:45;18.0;;;12.0;;
22675;SDS011;12521;43.310;21.876;2023-02-19T13:28:25;19.0;;;12.0;;
22675;SDS011;12521;43.310;21.876;2023-02-19T13:34:13;19.0;;;12.0;;
22675;SDS011;12521;43.310;21.876;2023-02-19T13:39:59;22.0;;;14.0;;
22675;SDS011;12521;43.310;21.876;2023-02-19T13:45:18;22.0;;;14.0;;
22675;SDS011;12521;43.310;21.876;2023-02-19T13:50:17;25.0;;;17.0;;
22675;SDS011;12521;43.310;21.876;2023-02-19T13:56:32;25.0;;;17.0;;
22675;SDS011;12521;43.310;21.876;2023-02-19T14:01:15;23.0;;;16.0;;
22675;SDS011;12521;43.310;21.876;2023-02-19T14:05:56;23.0;;;16.0;;
22675;SDS011;12521;43.310;21.876;2023-02-19T14:10:50;21.0;;;15.0;;
22675;SDS011;12521;43.310;21.876;2023-02-19T14:15:36;21.0;;;15.0;;
22675;SDS011;12521;43.310;21.876;2023-02-19T14:20:39;23.0;;;16.0;;
22675;SDS011;12521;43.310;21.876;2023-02-19T14:25:25;23.0;;;16.0;;
22675;SDS011;12521;43.310;21.876;2023-02-19T14:30:31;25.0;;;17.0;;
22675;SDS011;12521;43.310;21.876;2023-02-19T14:35:31;25.0;;;17.0;;
22675;SDS011;12521;43.310;21.876;2023-02-19T14:40:31;40.0;;;26.0;;
22675;SDS011;12521;43.310;21.876;2023-02-19T14:45:24;40.0;;;26.0;;
22675;SDS011;12521;43.310;21.876;2023-02-19T14:50:27;54.0;;;36.0;;
22675;SDS011;12521;43.310;21.876;2023-02-19T14:55:11;54.0;;;36.0;;
22675;SDS011;12521;43.310;21.876;2023-02-19T15:00:21;43.0;;;28.0;;
22675;SDS011;12521;43.310;21.876;2023-02-19T15:05:13;43.0;;;28.0;;
22675;SDS011;12521;43.310;21.876;2023-02-19T15:10:03;32.0;;;19.0;;
22675;SDS011;12521;43.310;21.876;2023-02-19T15:14:49;32.0;;;19.0;;
22675;SDS011;12521;43.310;21.876;2023-02-19T15:19:41;32.0;;;23.0;;
22675;SDS011;12521;43.310;21.876;2023-02-19T15:24:19;32.0;;;23.0;;
22675;SDS011;12521;43.310;21.876;2023-02-19T15:28:58;33.0;;;27.0;;
22675;SDS011;12521;43.310;21.876;2023-02-19T15:33:49;33.0;;;27.0;;
22675;SDS011;12521;43.310;21.876;2023-02-19T15:38:28;38.0;;;30.0;;
22675;SDS011;12521;43.310;21.876;2023-02-19T15:43:09;38.0;;;30.0;;
22675;SDS011;12521;43.310;21.876;2023-02-19T15:48:19;42.0;;;34.0;;
22675;SDS011;12521;43.310;21.876;2023-02-19T15:53:33;42.0;;;34.0;;
22675;SDS011;12521;43.310;21.876;2023-02-19T15:58:39;46.0;;;39.0;;
22675;SDS011;12521;43.310;21.876;2023-02-19T16:03:38;46.0;;;39.0;;
22675;SDS011;12521;43.310;21.876;2023-02-19T16:08:18;49.0;;;44.0;;
22675;SDS011;12521;43.310;21.876;2023-02-19T16:13:03;49.0;;;44.0;;
22675;SDS011;12521;43.310;21.876;2023-02-19T16:17:42;104.0;;;78.0;;
22675;SDS011;12521;43.310;21.876;2023-02-19T16:22:21;104.0;;;78.0;;
22675;SDS011;12521;43.310;21.876;2023-02-19T16:27:26;104.0;;;78.0;;
22675;SDS011;12521;43.310;21.876;2023-02-19T16:32:15;159.0;;;111.0;;
22675;SDS011;12521;43.310;21.876;2023-02-19T16:36:52;159.0;;;111.0;;
22675;SDS011;12521;43.310;21.876;2023-02-19T16:41:29;216.0;;;164.0;;
22675;SDS011;12521;43.310;21.876;2023-02-19T16:46:07;216.0;;;164.0;;
22675;SDS011;12521;43.310;21.876;2023-02-19T16:50:48;272.0;;;217.0;;
22675;SDS011;12521;43.310;21.876;2023-02-19T16:55:25;272.0;;;217.0;;
22675;SDS011;12521;43.310;21.876;2023-02-19T17:00:06;235.0;;;182.0;;
22675;SDS011;12521;43.310;21.876;2023-02-19T17:04:56;235.0;;;182.0;;
22675;SDS011;12521;43.310;21.876;2023-02-19T17:09:32;198.0;;;148.0;;
22675;SDS011;12521;43.310;21.876;2023-02-19T17:14:09;198.0;;;148.0;;
22675;SDS011;12521;43.310;21.876;2023-02-19T17:18:46;124.0;;;94.0;;
22675;SDS011;12521;43.310;21.876;2023-02-19T17:23:25;124.0;;;94.0;;
22675;SDS011;12521;43.310;21.876;2023-02-19T17:28:02;51.0;;;40.0;;
22675;SDS011;12521;43.310;21.876;2023-02-19T17:32:40;51.0;;;40.0;;
22675;SDS011;12521;43.310;21.876;2023-02-19T17:37:16;51.0;;;40.0;;
22675;SDS011;12521;43.310;21.876;2023-02-19T17:41:53;40.0;;;34.0;;
22675;SDS011;12521;43.310;21.876;2023-02-19T17:46:30;40.0;;;34.0;;
22675;SDS011;12521;43.310;21.876;2023-02-19T17:51:07;29.0;;;27.0;;
22675;SDS011;12521;43.310;21.876;2023-02-19T17:55:46;29.0;;;27.0;;
22675;SDS011;12521;43.310;21.876;2023-02-19T18:00:23;46.0;;;34.0;;
22675;SDS011;12521;43.310;21.876;2023-02-19T18:05:05;46.0;;;34.0;;
22675;SDS011;12521;43.310;21.876;2023-02-19T18:09:43;62.0;;;42.0;;
22675;SDS011;12521;43.310;21.876;2023-02-19T18:14:20;62.0;;;42.0;;
22675;SDS011;12521;43.310;21.876;2023-02-19T18:18:56;48.0;;;35.0;;
22675;SDS011;12521;43.310;21.876;2023-02-19T18:23:33;48.0;;;35.0;;
22675;SDS011;12521;43.310;21.876;2023-02-19T18:28:12;34.0;;;28.0;;
22675;SDS011;12521;43.310;21.876;2023-02-19T18:32:50;34.0;;;28.0;;
22675;SDS011;12521;43.310;21.876;2023-02-19T18:37:27;34.0;;;28.0;;
22675;SDS011;12521;43.310;21.876;2023-02-19T18:42:06;52.0;;;40.0;;
22675;SDS011;12521;43.310;21.876;2023-02-19T18:46:43;52.0;;;40.0;;
22675;SDS011;12521;43.310;21.876;2023-02-19T18:51:20;69.0;;;53.0;;
22675;SDS011;12521;43.310;21.876;2023-02-19T18:55:57;69.0;;;53.0;;
22675;SDS011;12521;43.310;21.876;2023-02-19T19:00:34;56.0;;;42.0;;
22675;SDS011;12521;43.310;21.876;2023-02-19T19:05:11;56.0;;;42.0;;
22675;SDS011;12521;43.310;21.876;2023-02-19T19:09:48;43.0;;;31.0;;
22675;SDS011;12521;43.310;21.876;2023-02-19T19:14:25;43.0;;;31.0;;
22675;SDS011;12521;43.310;21.876;2023-02-19T19:19:02;46.0;;;33.0;;
22675;SDS011;12521;43.310;21.876;2023-02-19T19:23:39;46.0;;;33.0;;
22675;SDS011;12521;43.310;21.876;2023-02-19T19:28:16;48.0;;;35.0;;
22675;SDS011;12521;43.310;21.876;2023-02-19T19:32:52;48.0;;;35.0;;
22675;SDS011;12521;43.310;21.876;2023-02-19T19:37:28;48.0;;;35.0;;
22675;SDS011;12521;43.310;21.876;2023-02-19T19:42:05;38.0;;;29.0;;
22675;SDS011;12521;43.310;21.876;2023-02-19T19:46:42;38.0;;;29.0;;
22675;SDS011;12521;43.310;21.876;2023-02-19T19:51:21;29.0;;;23.0;;
22675;SDS011;12521;43.310;21.876;2023-02-19T19:55:58;29.0;;;23.0;;
22675;SDS011;12521;43.310;21.876;2023-02-19T20:00:39;32.0;;;26.0;;
22675;SDS011;12521;43.310;21.876;2023-02-19T20:05:15;32.0;;;26.0;;
22675;SDS011;12521;43.310;21.876;2023-02-19T20:09:53;36.0;;;30.0;;
22675;SDS011;12521;43.310;21.876;2023-02-19T20:14:30;36.0;;;30.0;;
22675;SDS011;12521;43.310;21.876;2023-02-19T20:19:07;30.0;;;26.0;;
22675;SDS011;12521;43.310;21.876;2023-02-19T20:23:45;30.0;;;26.0;;
22675;SDS011;12521;43.310;21.876;2023-02-19T20:28:22;24.0;;;22.0;;
22675;SDS011;12521;43.310;21.876;2023-02-19T20:32:59;24.0;;;22.0;;
22675;SDS011;12521;43.310;21.876;2023-02-19T20:37:36;24.0;;;22.0;;
22675;SDS011;12521;43.310;21.876;2023-02-19T20:42:15;34.0;;;26.0;;
22675;SDS011;12521;43.310;21.876;2023-02-19T20:46:54;34.0;;;26.0;;
22675;SDS011;12521;43.310;21.876;2023-02-19T20:51:41;44.0;;;30.0;;
22675;SDS011;12521;43.310;21.876;2023-02-19T20:56:23;44.0;;;30.0;;
22675;SDS011;12521;43.310;21.876;2023-02-19T21:01:00;34.0;;;26.0;;
22675;SDS011;12521;43.310;21.876;2023-02-19T21:05:36;34.0;;;26.0;;
22675;SDS011;12521;43.310;21.876;2023-02-19T21:10:13;25.0;;;21.0;;
22675;SDS011;12521;43.310;21.876;2023-02-19T21:14:50;25.0;;;21.0;;
22675;SDS011;12521;43.310;21.876;2023-02-19T21:19:27;29.0;;;23.0;;
22675;SDS011;12521;43.310;21.876;2023-02-19T21:24:04;29.0;;;23.0;;
22675;SDS011;12521;43.310;21.876;2023-02-19T21:28:49;33.0;;;25.0;;
22675;SDS011;12521;43.310;21.876;2023-02-19T21:33:27;33.0;;;25.0;;
22675;SDS011;12521;43.310;21.876;2023-02-19T21:38:04;34.0;;;28.0;;
22675;SDS011;12521;43.310;21.876;2023-02-19T21:42:41;34.0;;;28.0;;
22675;SDS011;12521;43.310;21.876;2023-02-19T21:47:17;34.0;;;28.0;;
22675;SDS011;12521;43.310;21.876;2023-02-19T21:51:54;35.0;;;30.0;;
22675;SDS011;12521;43.310;21.876;2023-02-19T21:56:31;35.0;;;30.0;;
22675;SDS011;12521;43.310;21.876;2023-02-19T22:01:10;44.0;;;36.0;;
22675;SDS011;12521;43.310;21.876;2023-02-19T22:05:46;44.0;;;36.0;;
22675;SDS011;12521;43.310;21.876;2023-02-19T22:10:23;53.0;;;41.0;;
22675;SDS011;12521;43.310;21.876;2023-02-19T22:14:59;53.0;;;41.0;;
22675;SDS011;12521;43.310;21.876;2023-02-19T22:19:35;44.0;;;35.0;;
22675;SDS011;12521;43.310;21.876;2023-02-19T22:24:13;44.0;;;35.0;;
22675;SDS011;12521;43.310;21.876;2023-02-19T22:28:56;36.0;;;29.0;;
22675;SDS011;12521;43.310;21.876;2023-02-19T22:33:36;36.0;;;29.0;;
22675;SDS011;12521;43.310;21.876;2023-02-19T22:38:12;35.0;;;29.0;;
22675;SDS011;12521;43.310;21.876;2023-02-19T22:42:49;35.0;;;29.0;;
22675;SDS011;12521;43.310;21.876;2023-02-19T22:47:26;35.0;;;29.0;;
22675;SDS011;12521;43.310;21.876;2023-02-19T22:52:04;34.0;;;29.0;;
22675;SDS011;12521;43.310;21.876;2023-02-19T22:56:48;34.0;;;29.0;;
22675;SDS011;12521;43.310;21.876;2023-02-19T23:01:25;30.0;;;26.0;;
22675;SDS011;12521;43.310;21.876;2023-02-19T23:06:03;30.0;;;26.0;;
22675;SDS011;12521;43.310;21.876;2023-02-19T23:10:41;27.0;;;22.0;;
22675;SDS011;12521;43.310;21.876;2023-02-19T23:15:18;27.0;;;22.0;;
22675;SDS011;12521;43.310;21.876;2023-02-19T23:19:55;31.0;;;24.0;;
22675;SDS011;12521;43.310;21.876;2023-02-19T23:24:32;31.0;;;24.0;;
22675;SDS011;12521;43.310;21.876;2023-02-19T23:29:08;35.0;;;27.0;;
22675;SDS011;12521;43.310;21.876;2023-02-19T23:33:50;35.0;;;27.0;;
22675;SDS011;12521;43.310;21.876;2023-02-19T23:38:28;32.0;;;24.0;;
22675;SDS011;12521;43.310;21.876;2023-02-19T23:43:05;32.0;;;24.0;;
22675;SDS011;12521;43.310;21.876;2023-02-19T23:47:43;32.0;;;24.0;;
22675;SDS011;12521;43.310;21.876;2023-02-19T23:52:20;29.0;;;20.0;;
22675;SDS011;12521;43.310;21.876;2023-02-19T23:56:56;29.0;;;20.0;;
